createdAt,value
2023-02-20T00:02:27.927Z,100009.50
2023-02-20T00:08:29.816Z,100005.97
2023-02-20T00:14:32.260Z,100006.72
2023-02-20T00:20:36.322Z,100007.56
2023-02-20T00:26:38.217Z,100005.34
2023-02-20T00:32:40.278Z,100003.84
2023-02-20T00:38:44.412Z,99978.25
2023-02-20T00:44:46.320Z,100009.72
2023-02-20T00:50:48.206Z,100003.19
2023-02-20T00:56:50.097Z,99986.94
2023-02-20T01:02:52.020Z,99989.19
2023-02-20T01:08:54.007Z,99986.25
2023-02-20T01:14:55.919Z,99985.06
2023-02-20T01:20:57.921Z,99978.50
2023-02-20T01:26:59.842Z,99982.88
2023-02-20T01:33:01.797Z,99964.97
2023-02-20T01:39:03.789Z,99966.03
2023-02-20T01:45:23.843Z,99969.41
2023-02-20T01:51:27.655Z,99985.34
2023-02-20T01:57:32.980Z,99975.03
2023-02-20T02:03:40.658Z,99964.38
2023-02-20T02:10:02.639Z,99943.84
2023-02-20T02:16:26.063Z,99926.84
2023-02-20T02:23:24.883Z,99937.84
2023-02-20T02:29:44.452Z,99921.19
2023-02-20T02:36:29.242Z,99910.09
2023-02-20T02:43:07.759Z,99913.34
2023-02-20T02:49:34.570Z,99880.47
2023-02-20T02:55:37.027Z,99862.00
2023-02-20T03:01:55.902Z,99870.25
2023-02-20T03:07:59.177Z,99876.94
2023-02-20T03:14:37.079Z,99874.97
2023-02-20T03:21:24.304Z,99865.59
2023-02-20T03:27:39.013Z,99868.31
2023-02-20T03:34:06.379Z,99847.72
2023-02-20T03:40:30.473Z,99842.69
2023-02-20T03:46:36.398Z,99836.94
2023-02-20T03:52:38.447Z,99844.56
2023-02-20T03:58:46.209Z,99855.09
2023-02-20T04:04:55.847Z,99856.19
2023-02-20T04:11:15.238Z,99861.25
2023-02-20T04:17:25.433Z,99847.41
2023-02-20T04:23:28.681Z,99850.84
2023-02-20T04:29:30.624Z,99841.47
2023-02-20T04:35:32.663Z,99853.13
2023-02-20T04:41:34.570Z,99838.63
2023-02-20T04:47:36.450Z,99839.31
2023-02-20T04:53:38.476Z,99815.56
2023-02-20T04:59:40.410Z,99825.31
2023-02-20T05:05:42.400Z,99773.34
2023-02-20T05:11:44.441Z,99765.31
2023-02-20T05:17:46.995Z,99763.00
2023-02-20T05:23:48.917Z,99768.03
2023-02-20T05:29:58.144Z,99773.03
2023-02-20T05:36:00.974Z,99741.50
2023-02-20T05:42:02.910Z,99748.03
2023-02-20T05:48:05.278Z,99735.63
2023-02-20T05:54:07.254Z,99729.50
2023-02-20T06:00:10.337Z,99748.00
2023-02-20T06:06:13.182Z,99760.09
2023-02-20T06:12:15.310Z,99736.66
2023-02-20T06:18:17.201Z,99727.88
2023-02-20T06:24:20.295Z,99705.69
2023-02-20T06:30:22.241Z,99709.31
2023-02-20T06:36:32.723Z,99701.47
2023-02-20T06:42:34.609Z,99714.19
2023-02-20T06:48:57.615Z,99705.31
2023-02-20T06:54:59.497Z,99708.81
2023-02-20T07:01:01.404Z,99719.81
2023-02-20T07:07:03.344Z,99710.69
2023-02-20T07:13:06.282Z,99712.53
2023-02-20T07:19:08.197Z,99708.56
2023-02-20T07:25:10.351Z,99690.72
2023-02-20T07:31:12.300Z,99689.25
2023-02-20T07:37:15.535Z,99693.25
2023-02-20T07:43:17.722Z,99675.75
2023-02-20T07:49:19.595Z,99669.25
2023-02-20T07:55:21.565Z,99665.53
2023-02-20T08:01:23.526Z,99673.41
2023-02-20T08:07:25.416Z,99690.75
2023-02-20T08:13:27.911Z,99680.84
2023-02-20T08:19:29.827Z,99676.31
2023-02-20T08:25:32.505Z,99666.09
2023-02-20T08:31:34.471Z,99678.44
2023-02-20T08:37:36.413Z,99678.72
2023-02-20T08:43:40.629Z,99668.66
2023-02-20T08:49:42.513Z,99657.25
2023-02-20T08:55:44.414Z,99652.31
2023-02-20T09:01:46.386Z,99644.81
2023-02-20T09:07:48.355Z,99639.06
2023-02-20T09:13:50.415Z,99638.91
2023-02-20T09:19:52.334Z,99638.19
2023-02-20T09:25:54.265Z,99626.91
2023-02-20T09:31:56.874Z,99634.38
2023-02-20T09:37:58.881Z,99643.72
2023-02-20T09:44:44.211Z,99629.78
2023-02-20T09:50:51.579Z,99613.66
2023-02-20T09:57:01.082Z,99601.19
2023-02-20T10:03:27.621Z,99595.66
2023-02-20T10:09:29.503Z,99588.53
2023-02-20T10:16:13.301Z,99592.97
2023-02-20T10:22:37.816Z,99581.25
2023-02-20T10:28:40.116Z,99578.50
2023-02-20T10:34:51.806Z,99581.69
2023-02-20T10:41:07.971Z,99582.97
2023-02-20T10:47:42.936Z,99573.66
2023-02-20T10:53:58.565Z,99561.19
2023-02-20T11:00:17.665Z,99555.28
2023-02-20T11:06:26.463Z,99547.69
2023-02-20T11:12:57.641Z,99517.97
2023-02-20T11:19:19.902Z,99505.38
2023-02-20T11:25:30.475Z,99513.16
2023-02-20T11:31:34.220Z,99496.63
2023-02-20T11:37:49.168Z,99480.38
2023-02-20T11:44:10.926Z,99467.94
2023-02-20T11:50:21.097Z,99453.09
2023-02-20T11:56:24.324Z,99454.09
2023-02-20T12:02:28.542Z,99442.31
2023-02-20T12:08:50.458Z,99421.25
2023-02-20T12:14:52.834Z,99421.22
2023-02-20T12:21:10.701Z,99429.34
2023-02-20T12:27:43.438Z,99421.66
2023-02-20T12:34:05.122Z,99429.44
2023-02-20T12:40:37.639Z,99410.97
2023-02-20T12:47:40.048Z,99425.56
2023-02-20T12:54:26.925Z,99447.09
2023-02-20T13:00:43.555Z,99432.75
2023-02-20T13:07:03.731Z,99435.59
2023-02-20T13:13:10.914Z,99435.59
2023-02-20T13:19:36.358Z,99408.78
2023-02-20T13:25:48.570Z,99396.81
2023-02-20T13:31:54.198Z,99395.56
2023-02-20T13:37:56.772Z,99414.06
2023-02-20T13:44:41.225Z,99415.38
2023-02-20T13:50:43.108Z,99442.88
2023-02-20T13:57:18.644Z,99432.47
2023-02-20T14:03:32.128Z,99456.22
2023-02-20T14:09:34.114Z,99458.81
2023-02-20T14:15:51.555Z,99454.75
2023-02-20T14:21:53.682Z,99465.94
2023-02-20T14:28:15.369Z,99458.91
2023-02-20T14:34:31.139Z,99467.66
2023-02-20T14:40:44.372Z,99462.31
2023-02-20T14:46:50.964Z,99441.16
2023-02-20T14:53:18.270Z,99439.84
2023-02-20T14:59:33.521Z,99442.53
2023-02-20T15:05:36.087Z,99439.94
2023-02-20T15:11:52.670Z,99453.13
2023-02-20T15:18:17.502Z,99439.38
2023-02-20T15:24:25.448Z,99439.94
2023-02-20T15:30:27.451Z,99450.63
2023-02-20T15:36:29.413Z,99446.94
2023-02-20T15:42:31.306Z,99450.25
2023-02-20T15:48:33.247Z,99458.84
2023-02-20T15:54:35.445Z,99449.91
2023-02-20T16:00:37.382Z,99455.50
2023-02-20T16:06:39.326Z,99454.66
2023-02-20T16:12:41.571Z,99441.84
2023-02-20T16:18:43.508Z,99445.06
2023-02-20T16:24:47.016Z,99436.59
2023-02-20T16:30:49.642Z,99445.66
2023-02-20T16:36:53.257Z,99447.50
2023-02-20T16:42:55.360Z,99445.78
2023-02-20T16:48:57.302Z,99469.56
2023-02-20T16:55:00.909Z,99469.44
2023-02-20T17:01:02.797Z,99481.03
2023-02-20T17:07:08.864Z,99464.38
2023-02-20T17:13:11.093Z,99480.00
2023-02-20T17:19:13.031Z,99478.00
2023-02-20T17:25:18.760Z,99479.69
2023-02-20T17:31:22.657Z,99477.56
2023-02-20T17:37:26.343Z,99478.75
2023-02-20T17:43:28.452Z,99477.06
2023-02-20T17:49:30.506Z,99490.53
2023-02-20T17:55:34.081Z,99478.06
2023-02-20T18:01:36.142Z,99470.94
2023-02-20T18:07:38.296Z,99466.06
2023-02-20T18:13:40.509Z,99462.19
2023-02-20T18:19:42.544Z,99456.50
2023-02-20T18:25:44.477Z,99458.81
2023-02-20T18:31:47.255Z,99466.38
2023-02-20T18:37:49.280Z,99477.81
2023-02-20T18:43:51.302Z,99477.81
2023-02-20T18:49:53.262Z,99478.56
2023-02-20T18:55:55.486Z,99485.13
2023-02-20T19:01:58.464Z,99478.38
2023-02-20T19:08:03.937Z,99487.81
2023-02-20T19:14:05.888Z,99486.31
2023-02-20T19:20:15.107Z,99482.25
2023-02-20T19:26:17.335Z,99491.03
2023-02-20T19:32:19.816Z,99475.16
2023-02-20T19:38:22.403Z,99462.50
2023-02-20T19:44:24.413Z,99455.22
2023-02-20T19:50:30.290Z,99451.47
2023-02-20T19:56:32.573Z,99456.63
2023-02-20T20:02:34.513Z,99446.56
2023-02-20T20:08:40.194Z,99442.22
2023-02-20T20:14:42.343Z,99447.31
2023-02-20T20:20:44.235Z,99434.28
2023-02-20T20:26:46.165Z,99430.69
2023-02-20T20:32:52.013Z,99419.72
2023-02-20T20:38:53.895Z,99390.00
2023-02-20T20:44:58.829Z,99378.59
2023-02-20T20:51:00.729Z,99381.06
2023-02-20T20:57:02.676Z,99394.19
2023-02-20T21:03:06.936Z,99401.78
2023-02-20T21:09:08.869Z,99401.94
2023-02-20T21:15:12.697Z,99409.84
2023-02-20T21:21:14.914Z,99417.97
2023-02-20T21:27:17.503Z,99409.75
2023-02-20T21:33:19.955Z,99408.91
2023-02-20T21:39:24.105Z,99394.22
2023-02-20T21:45:26.331Z,99388.47
2023-02-20T21:51:28.231Z,99385.88
2023-02-20T21:57:30.108Z,99391.34
2023-02-20T22:03:32.002Z,99386.97
2023-02-20T22:09:52.687Z,99397.22
2023-02-20T22:16:12.845Z,99396.75
2023-02-20T22:22:33.502Z,99383.53
2023-02-20T22:28:53.852Z,99397.00
2023-02-20T22:35:14.242Z,99395.63
2023-02-20T22:41:40.794Z,99409.72
2023-02-20T22:48:01.721Z,99401.97
2023-02-20T22:54:22.276Z,99404.78
2023-02-20T23:00:42.765Z,99393.94
2023-02-20T23:07:03.169Z,99395.97
2023-02-20T23:13:24.717Z,99404.53
2023-02-20T23:19:44.773Z,99408.56
2023-02-20T23:26:05.460Z,99399.28
2023-02-20T23:32:26.273Z,99407.50
2023-02-20T23:38:46.928Z,99405.59
2023-02-20T23:45:08.709Z,99414.59
2023-02-20T23:51:31.282Z,99421.16
2023-02-20T23:57:51.831Z,99393.63
